首页
METAR-TAF:

METAR-TAF

机场 :

Appleton Municipal Airport

Appleton, 明尼蘇達州, 美国

纬度: 45-13-39N, 经度: 096-00-15W, 海拔: 310米

当前天气观测

该预报发布于34分钟前的04:30 UTC
静风
温度 2°C
湿度 93%
气压 1005 hPa
能見度: 8.0公里
天空无云
轻雾

METAR: KAQP 190430Z AUTO 00000KT 5SM BR CLR 02/01 A2968 RMK AO2

时间: 23:04 (05:04 UTC)


TAF: 丢失

超过4000个机场的气象观测和天气预报(METAR&TAF报告)。

可查询的气象台以黄色和红色小点在地图上表示。

将鼠标移到小点上方,可查看气象台名称。

然后点击查看天气观测和预报。

如需切换地图:点击带黑十字的绿色按钮放大地图;点击带横线的绿色按钮缩小地图;或者点击绿色箭头查看邻近地区的地图。


METAR-TAF: